createdAt,value
2019-06-20T00:01:49.920Z,83.32
2019-06-20T00:04:53.650Z,84.12
2019-06-20T00:07:57.894Z,84.57
2019-06-20T00:11:01.587Z,84.87
2019-06-20T00:14:05.707Z,84.65
2019-06-20T00:17:09.411Z,84.12
2019-06-20T00:20:13.373Z,83.50
2019-06-20T00:23:17.045Z,83.61
2019-06-20T00:26:20.983Z,83.79
2019-06-20T00:29:24.744Z,84.39
2019-06-20T00:32:28.446Z,83.53
2019-06-20T00:35:32.152Z,83.37
2019-06-20T00:38:36.167Z,84.00
2019-06-20T00:41:40.263Z,83.58
2019-06-20T00:44:43.971Z,84.24
2019-06-20T00:47:47.952Z,84.35
2019-06-20T00:50:51.685Z,85.23
2019-06-20T00:53:55.665Z,84.61
2019-06-20T00:56:59.415Z,84.36
2019-06-20T01:00:03.162Z,83.84
2019-06-20T01:03:06.932Z,84.22
2019-06-20T01:06:10.965Z,84.17
2019-06-20T01:09:14.985Z,84.01
2019-06-20T01:12:18.694Z,84.94
2019-06-20T01:15:22.896Z,84.79
2019-06-20T01:18:26.602Z,84.69
2019-06-20T01:21:30.389Z,85.42
2019-06-20T01:24:34.077Z,85.31
2019-06-20T01:27:38.449Z,85.17
2019-06-20T01:30:42.595Z,85.21
2019-06-20T01:33:46.284Z,85.09
2019-06-20T01:36:49.991Z,84.71
2019-06-20T01:39:53.687Z,84.85
2019-06-20T01:42:57.400Z,84.85
2019-06-20T01:46:01.122Z,84.81
2019-06-20T01:49:04.814Z,84.57
2019-06-20T01:52:08.742Z,84.44
2019-06-20T01:55:12.922Z,84.33
2019-06-20T01:58:16.860Z,84.75
2019-06-20T02:01:20.628Z,84.79
2019-06-20T02:04:24.561Z,84.72
2019-06-20T02:07:28.470Z,84.60
2019-06-20T02:10:32.483Z,84.71
2019-06-20T02:13:36.440Z,85.06
2019-06-20T02:16:40.228Z,85.05
2019-06-20T02:19:44.080Z,85.45
2019-06-20T02:22:47.783Z,85.00
2019-06-20T02:25:52.065Z,84.91
2019-06-20T02:28:55.831Z,84.95
2019-06-20T02:31:59.549Z,84.11
2019-06-20T02:35:03.249Z,84.86
2019-06-20T02:38:07.103Z,84.41
2019-06-20T02:41:10.860Z,84.94
2019-06-20T02:44:29.362Z,85.42
2019-06-20T02:47:19.988Z,85.45
2019-06-20T02:50:23.944Z,85.24
2019-06-20T02:53:27.706Z,84.99
2019-06-20T02:56:31.480Z,85.26
2019-06-20T02:59:35.554Z,84.70
2019-06-20T03:02:39.532Z,84.73
2019-06-20T03:05:58.659Z,84.62
2019-06-20T03:09:02.373Z,85.58
2019-06-20T03:12:06.071Z,85.60
2019-06-20T03:15:09.866Z,85.00
2019-06-20T03:18:13.566Z,85.53
2019-06-20T03:21:17.329Z,84.95
2019-06-20T03:24:21.292Z,84.98
2019-06-20T03:27:24.991Z,84.75
2019-06-20T03:30:28.934Z,85.54
2019-06-20T03:33:32.687Z,85.00
2019-06-20T03:36:36.382Z,85.32
2019-06-20T03:39:40.080Z,84.98
2019-06-20T03:42:43.849Z,85.19
2019-06-20T03:45:47.986Z,83.85
2019-06-20T03:48:52.436Z,84.19
2019-06-20T03:51:56.211Z,84.07
2019-06-20T03:54:59.920Z,84.22
2019-06-20T03:58:04.264Z,83.85
2019-06-20T04:01:08.235Z,84.01
2019-06-20T04:04:12.369Z,84.08
2019-06-20T04:07:16.140Z,83.87
2019-06-20T04:10:19.918Z,83.87
2019-06-20T04:13:23.972Z,84.48
2019-06-20T04:16:27.748Z,84.34
2019-06-20T04:19:31.437Z,84.21
2019-06-20T04:22:35.881Z,83.69
2019-06-20T04:25:39.573Z,83.57
2019-06-20T04:28:43.262Z,83.59
2019-06-20T04:31:46.961Z,83.79
2019-06-20T04:34:50.769Z,83.53
2019-06-20T04:37:54.461Z,82.90
2019-06-20T04:40:58.154Z,82.85
2019-06-20T04:44:01.905Z,83.08
2019-06-20T04:47:10.098Z,83.17
2019-06-20T04:50:13.890Z,83.77
2019-06-20T04:53:17.719Z,83.38
2019-06-20T04:56:21.736Z,82.78
2019-06-20T04:59:25.906Z,82.53
2019-06-20T05:02:36.109Z,83.15
2019-06-20T05:05:39.839Z,82.81
2019-06-20T05:08:43.863Z,82.92
2019-06-20T05:11:47.620Z,82.84
2019-06-20T05:14:51.322Z,81.95
2019-06-20T05:17:55.037Z,82.54
2019-06-20T05:20:58.727Z,81.90
2019-06-20T05:24:02.428Z,82.97
2019-06-20T05:27:06.139Z,82.66
2019-06-20T05:30:11.241Z,82.86
2019-06-20T05:33:14.946Z,83.26
2019-06-20T05:36:18.921Z,82.75
2019-06-20T05:39:22.927Z,82.35
2019-06-20T05:42:26.643Z,83.01
2019-06-20T05:45:31.149Z,82.42
2019-06-20T05:48:35.165Z,81.82
2019-06-20T05:51:39.803Z,82.70
2019-06-20T05:54:44.222Z,82.26
2019-06-20T05:57:47.986Z,80.87
2019-06-20T06:00:51.683Z,81.52
2019-06-20T06:03:55.387Z,82.11
2019-06-20T06:06:59.375Z,81.31
2019-06-20T06:10:04.473Z,82.55
2019-06-20T06:13:08.806Z,81.53
2019-06-20T06:16:25.652Z,80.85
2019-06-20T06:19:18.603Z,80.26
2019-06-20T06:22:22.379Z,80.45
2019-06-20T06:25:26.668Z,81.01
2019-06-20T06:28:30.358Z,79.47
2019-06-20T06:31:34.058Z,80.25
2019-06-20T06:34:38.062Z,79.92
2019-06-20T06:37:41.792Z,79.65
2019-06-20T06:40:45.593Z,79.28
2019-06-20T06:43:49.379Z,79.78
2019-06-20T06:46:57.516Z,79.80
2019-06-20T06:49:58.742Z,77.91
2019-06-20T06:53:02.446Z,80.33
2019-06-20T06:56:06.241Z,79.91
2019-06-20T06:59:09.969Z,78.38
2019-06-20T07:02:14.352Z,78.55
2019-06-20T07:05:18.716Z,78.38
2019-06-20T07:08:22.445Z,78.21
2019-06-20T07:11:26.188Z,80.40
2019-06-20T07:14:29.897Z,79.33
2019-06-20T07:17:33.621Z,79.93
2019-06-20T07:20:37.678Z,79.98
2019-06-20T07:23:41.406Z,80.92
2019-06-20T07:26:45.414Z,80.74
2019-06-20T07:29:49.170Z,79.42
2019-06-20T07:32:52.964Z,79.14
2019-06-20T07:35:56.792Z,78.38
2019-06-20T07:39:01.146Z,78.22
2019-06-20T07:42:04.921Z,77.15
2019-06-20T07:45:09.808Z,77.98
2019-06-20T07:48:13.499Z,78.83
2019-06-20T07:51:17.208Z,78.85
2019-06-20T07:54:20.957Z,77.10
2019-06-20T07:57:25.160Z,78.13
2019-06-20T08:00:29.127Z,78.90
2019-06-20T08:03:32.827Z,76.67
2019-06-20T08:06:36.545Z,77.03
2019-06-20T08:09:44.864Z,76.19
2019-06-20T08:12:45.930Z,77.34
2019-06-20T08:15:49.983Z,75.81
2019-06-20T08:18:54.330Z,76.45
2019-06-20T08:21:58.367Z,75.14
2019-06-20T08:25:03.231Z,74.94
2019-06-20T08:28:07.206Z,73.03
2019-06-20T08:31:11.331Z,70.59
2019-06-20T08:34:15.385Z,71.92
2019-06-20T08:37:19.101Z,72.71
2019-06-20T08:40:25.708Z,71.79
2019-06-20T08:43:29.435Z,72.46
2019-06-20T08:46:33.139Z,73.83
2019-06-20T08:49:37.124Z,74.25
2019-06-20T08:52:41.132Z,73.27
2019-06-20T08:55:45.084Z,72.43
2019-06-20T08:58:48.786Z,72.28
2019-06-20T09:01:55.992Z,71.07
2019-06-20T09:04:58.273Z,71.22
2019-06-20T09:11:06.521Z,71.24
2019-06-20T09:14:10.522Z,70.71
2019-06-20T09:17:14.200Z,71.03
2019-06-20T09:20:19.678Z,70.44
2019-06-20T09:23:23.405Z,70.99
2019-06-20T09:26:27.124Z,70.50
2019-06-20T09:29:41.395Z,72.00
2019-06-20T09:32:37.055Z,68.85
2019-06-20T09:35:40.761Z,69.90
2019-06-20T09:38:44.731Z,70.98
2019-06-20T09:41:48.420Z,71.45
2019-06-20T09:44:52.637Z,69.60
2019-06-20T09:47:56.403Z,71.90
2019-06-20T09:51:00.353Z,68.94
2019-06-20T09:54:04.123Z,70.91
2019-06-20T09:57:08.068Z,71.42
2019-06-20T10:03:15.442Z,69.27
2019-06-20T10:06:19.143Z,67.43
2019-06-20T10:09:22.851Z,68.84
2019-06-20T10:12:26.961Z,69.96
2019-06-20T10:15:33.300Z,70.09
2019-06-20T10:18:37.064Z,69.95
2019-06-20T10:21:40.872Z,68.94
2019-06-20T10:24:45.788Z,71.01
2019-06-20T10:27:51.420Z,70.47
2019-06-20T10:30:55.502Z,70.00
2019-06-20T10:33:59.213Z,69.67
2019-06-20T10:37:03.281Z,69.98
2019-06-20T10:40:08.734Z,68.33
2019-06-20T10:43:12.430Z,66.09
2019-06-20T10:46:16.137Z,64.10
2019-06-20T10:49:19.847Z,60.73
2019-06-20T10:52:23.546Z,56.84
2019-06-20T10:55:27.521Z,57.43
2019-06-20T10:58:31.546Z,57.35
2019-06-20T11:01:35.611Z,59.42
2019-06-20T11:04:40.696Z,62.09
2019-06-20T11:07:45.598Z,66.95
2019-06-20T11:10:49.442Z,65.35
2019-06-20T11:13:53.689Z,65.58
2019-06-20T11:16:58.759Z,65.78
2019-06-20T11:20:03.095Z,64.26
2019-06-20T11:23:06.922Z,62.22
2019-06-20T11:26:10.676Z,66.18
2019-06-20T11:29:14.416Z,63.33
2019-06-20T11:32:18.373Z,63.58
2019-06-20T11:35:22.341Z,63.70
2019-06-20T11:38:26.376Z,59.80
2019-06-20T11:41:30.194Z,57.07
2019-06-20T11:44:35.321Z,59.32
2019-06-20T11:47:40.412Z,60.23
2019-06-20T11:50:44.900Z,62.26
2019-06-20T11:53:48.856Z,58.86
2019-06-20T11:56:52.569Z,59.03
2019-06-20T11:59:56.648Z,59.51
2019-06-20T12:03:00.400Z,60.01
2019-06-20T12:06:04.387Z,61.05
2019-06-20T12:09:08.402Z,60.25
2019-06-20T12:12:12.749Z,60.15
2019-06-20T12:15:17.417Z,60.81
2019-06-20T12:18:21.558Z,62.46
2019-06-20T12:21:25.758Z,59.93
2019-06-20T12:24:29.777Z,58.02
2019-06-20T12:27:34.296Z,61.67
2019-06-20T12:30:38.408Z,59.28
2019-06-20T12:33:45.046Z,59.61
2019-06-20T12:36:48.840Z,56.24
2019-06-20T12:39:52.561Z,60.88
2019-06-20T12:42:56.237Z,58.32
2019-06-20T12:46:00.308Z,56.58
2019-06-20T12:49:04.442Z,57.71
2019-06-20T12:52:08.471Z,57.52
2019-06-20T12:55:12.993Z,56.81
2019-06-20T12:58:16.750Z,54.97
2019-06-20T13:01:34.854Z,54.80
2019-06-20T13:04:25.987Z,54.35
2019-06-20T13:07:29.696Z,55.61
2019-06-20T13:10:33.698Z,58.28
2019-06-20T13:13:38.827Z,55.55
2019-06-20T13:16:42.976Z,53.71
2019-06-20T13:19:46.672Z,53.37
2019-06-20T13:22:50.390Z,53.08
2019-06-20T13:25:54.584Z,55.32
2019-06-20T13:29:04.019Z,57.55
2019-06-20T13:32:04.653Z,51.84
2019-06-20T13:35:09.200Z,50.11
2019-06-20T13:38:13.275Z,52.24
2019-06-20T13:41:17.043Z,49.30
2019-06-20T13:44:21.808Z,50.59
2019-06-20T13:47:25.640Z,46.71
2019-06-20T13:50:29.391Z,49.84
2019-06-20T13:53:33.101Z,47.63
2019-06-20T13:56:36.807Z,47.19
2019-06-20T13:59:41.659Z,48.56
2019-06-20T14:02:47.039Z,49.78
2019-06-20T14:05:51.673Z,48.29
2019-06-20T14:08:55.430Z,51.50
2019-06-20T14:11:59.109Z,47.52
2019-06-20T14:15:02.809Z,45.86
2019-06-20T14:18:06.575Z,50.24
2019-06-20T14:21:10.283Z,46.31
2019-06-20T14:24:14.040Z,47.20
2019-06-20T14:27:17.734Z,47.85
2019-06-20T14:30:22.186Z,46.67
2019-06-20T14:33:25.877Z,45.99
2019-06-20T14:36:30.182Z,47.25
2019-06-20T14:39:34.355Z,48.39
2019-06-20T14:42:38.486Z,48.30
2019-06-20T14:45:43.828Z,46.84
2019-06-20T14:48:48.490Z,48.96
2019-06-20T14:51:52.487Z,48.63
2019-06-20T14:54:56.596Z,49.74
2019-06-20T14:58:00.406Z,49.25
2019-06-20T15:01:04.233Z,50.50
2019-06-20T15:04:07.934Z,51.08
2019-06-20T15:07:11.698Z,51.56
2019-06-20T15:10:16.076Z,51.25
2019-06-20T15:13:19.805Z,54.14
2019-06-20T15:16:23.585Z,50.61
2019-06-20T15:19:27.285Z,53.07
2019-06-20T15:22:32.103Z,50.03
2019-06-20T15:25:36.253Z,52.46
2019-06-20T15:28:39.942Z,50.87
2019-06-20T15:31:43.936Z,51.90
2019-06-20T15:34:49.341Z,52.96
2019-06-20T15:37:53.929Z,52.75
2019-06-20T15:40:58.998Z,52.82
2019-06-20T15:44:02.998Z,54.53
2019-06-20T15:47:07.018Z,54.82
2019-06-20T15:50:10.953Z,54.05
2019-06-20T15:53:14.824Z,53.52
2019-06-20T15:56:18.553Z,54.49
2019-06-20T15:59:22.625Z,55.79
2019-06-20T16:02:26.373Z,57.22
2019-06-20T16:05:30.112Z,56.84
2019-06-20T16:08:33.850Z,58.58
2019-06-20T16:11:37.557Z,61.06
2019-06-20T16:14:41.295Z,65.88
2019-06-20T16:17:44.999Z,69.48
2019-06-20T16:20:48.979Z,69.83
2019-06-20T16:23:52.695Z,69.94
2019-06-20T16:26:56.429Z,67.86
2019-06-20T16:30:00.126Z,69.32
2019-06-20T16:33:04.039Z,69.58
2019-06-20T16:36:07.756Z,69.64
2019-06-20T16:39:11.449Z,67.61
2019-06-20T16:42:15.183Z,69.72
2019-06-20T16:45:19.155Z,68.36
2019-06-20T16:48:22.877Z,71.37
2019-06-20T16:51:26.579Z,69.53
2019-06-20T16:54:30.675Z,69.29
2019-06-20T16:57:34.396Z,68.40
2019-06-20T17:00:38.548Z,69.43
2019-06-20T17:03:42.317Z,68.33
2019-06-20T17:06:46.333Z,70.46
2019-06-20T17:09:50.027Z,73.39
2019-06-20T17:12:54.005Z,71.78
2019-06-20T17:15:57.946Z,74.25
2019-06-20T17:19:01.642Z,71.20
2019-06-20T17:22:06.084Z,70.66
2019-06-20T17:25:10.232Z,73.32
2019-06-20T17:28:13.933Z,73.11
2019-06-20T17:31:17.872Z,73.62
2019-06-20T17:34:21.568Z,72.84
2019-06-20T17:37:25.267Z,74.75
2019-06-20T17:40:29.204Z,74.30
2019-06-20T17:43:32.898Z,73.40
2019-06-20T17:46:36.959Z,73.81
2019-06-20T17:49:40.885Z,73.29
2019-06-20T17:52:44.696Z,74.81
2019-06-20T17:55:48.704Z,74.85
2019-06-20T17:58:52.410Z,75.43
2019-06-20T18:01:56.117Z,74.68
2019-06-20T18:05:00.105Z,75.88
2019-06-20T18:08:14.822Z,75.78
2019-06-20T18:11:09.900Z,75.75
2019-06-20T18:14:14.299Z,75.25
2019-06-20T18:17:18.360Z,75.65
2019-06-20T18:20:24.510Z,76.22
2019-06-20T18:23:28.511Z,76.41
2019-06-20T18:26:32.211Z,75.89
2019-06-20T18:29:36.024Z,76.52
2019-06-20T18:32:40.048Z,76.56
2019-06-20T18:35:43.878Z,76.75
2019-06-20T18:38:47.871Z,75.66
2019-06-20T18:41:51.590Z,77.66
2019-06-20T18:44:55.291Z,77.29
2019-06-20T18:47:59.018Z,77.38
2019-06-20T18:51:02.710Z,77.37
2019-06-20T18:54:06.412Z,76.94
2019-06-20T18:57:10.117Z,76.78
2019-06-20T19:00:14.388Z,76.74
2019-06-20T19:03:21.331Z,76.67
2019-06-20T19:06:35.508Z,77.13
2019-06-20T19:09:29.732Z,76.48
2019-06-20T19:12:33.732Z,76.77
2019-06-20T19:15:37.407Z,76.85
2019-06-20T19:18:41.273Z,77.32
2019-06-20T19:21:44.978Z,77.74
2019-06-20T19:24:48.669Z,77.52
2019-06-20T19:27:52.618Z,77.53
2019-06-20T19:30:56.388Z,77.52
2019-06-20T19:34:00.095Z,77.76
2019-06-20T19:37:03.799Z,78.11
2019-06-20T19:40:08.288Z,78.07
2019-06-20T19:43:12.084Z,77.72
2019-06-20T19:46:15.843Z,78.05
2019-06-20T19:49:19.556Z,78.63
2019-06-20T19:52:23.566Z,79.01
2019-06-20T19:55:27.625Z,78.95
2019-06-20T19:58:31.494Z,78.83
2019-06-20T20:01:35.626Z,78.66
2019-06-20T20:04:39.860Z,78.07
2019-06-20T20:07:44.176Z,78.19
2019-06-20T20:10:48.641Z,78.52
2019-06-20T20:13:52.334Z,78.49
2019-06-20T20:16:56.066Z,78.37
2019-06-20T20:19:59.775Z,78.55
2019-06-20T20:23:03.539Z,79.34
2019-06-20T20:26:08.805Z,79.28
2019-06-20T20:29:12.671Z,79.52
2019-06-20T20:32:16.890Z,79.62
2019-06-20T20:35:34.493Z,79.98
2019-06-20T20:38:26.490Z,79.96
2019-06-20T20:41:30.567Z,79.64
2019-06-20T20:44:34.278Z,79.69
2019-06-20T20:47:38.065Z,80.36
2019-06-20T20:50:42.392Z,79.37
2019-06-20T20:53:46.174Z,80.05
2019-06-20T20:56:50.143Z,80.24
2019-06-20T20:59:53.873Z,80.17
2019-06-20T21:02:57.669Z,79.13
2019-06-20T21:06:01.659Z,79.47
2019-06-20T21:09:07.756Z,78.60
2019-06-20T21:12:11.727Z,79.17
2019-06-20T21:15:16.055Z,79.07
2019-06-20T21:18:19.987Z,79.28
2019-06-20T21:21:24.273Z,79.37
2019-06-20T21:24:28.007Z,78.11
2019-06-20T21:27:32.226Z,79.62
2019-06-20T21:30:35.936Z,79.69
2019-06-20T21:33:39.630Z,80.52
2019-06-20T21:36:43.604Z,80.42
2019-06-20T21:39:47.371Z,79.91
2019-06-20T21:42:51.093Z,80.37
2019-06-20T21:45:54.795Z,80.01
2019-06-20T21:48:58.491Z,80.95
2019-06-20T21:52:02.190Z,81.50
2019-06-20T21:55:06.270Z,81.34
2019-06-20T21:58:10.039Z,81.91
2019-06-20T22:01:14.615Z,83.08
2019-06-20T22:04:18.324Z,82.02
2019-06-20T22:07:22.046Z,82.75
2019-06-20T22:10:25.818Z,82.69
2019-06-20T22:13:29.526Z,80.64
2019-06-20T22:16:33.243Z,80.63
2019-06-20T22:19:36.930Z,81.68
2019-06-20T22:22:41.738Z,81.25
2019-06-20T22:25:45.574Z,81.93
2019-06-20T22:28:49.622Z,81.48
2019-06-20T22:31:53.339Z,81.73
2019-06-20T22:34:57.372Z,82.66
2019-06-20T22:38:01.159Z,82.72
2019-06-20T22:41:04.943Z,81.83
2019-06-20T22:44:08.650Z,80.90
2019-06-20T22:47:12.374Z,82.81
2019-06-20T22:50:16.798Z,81.70
2019-06-20T22:53:20.507Z,81.18
2019-06-20T22:56:24.519Z,80.60
2019-06-20T22:59:28.551Z,81.77
2019-06-20T23:02:32.547Z,81.33
2019-06-20T23:05:36.359Z,82.42
2019-06-20T23:08:40.315Z,81.40
2019-06-20T23:11:44.108Z,81.63
2019-06-20T23:14:48.610Z,80.94
2019-06-20T23:17:52.322Z,81.72
2019-06-20T23:21:04.611Z,81.44
2019-06-20T23:24:02.078Z,82.43
2019-06-20T23:27:06.071Z,81.80
2019-06-20T23:30:11.819Z,82.08
2019-06-20T23:33:15.514Z,81.69
2019-06-20T23:36:19.206Z,81.81
2019-06-20T23:39:22.937Z,80.89
2019-06-20T23:42:26.959Z,81.42
2019-06-20T23:45:30.666Z,81.18
2019-06-20T23:48:34.377Z,79.77
2019-06-20T23:51:42.349Z,80.23
2019-06-20T23:54:46.422Z,82.14
2019-06-20T23:57:50.424Z,81.93
